Time;durP1;ratioP1;P1;durP2;ratioP2;P2;SDS_P1;SDS_P2;PMS_P1;PMS_P2;Temp;Humidity;BMP_temperature;BMP_pressure;BME280_temperature;BME280_humidity;BME280_pressure;Samples;Min_cycle;Max_cycle;Signal;HPM_P1;HPM_P2
2023/02/02 00:01:49;;;;;;;15.40;7.53;;;;;;;7.66;54.75;100124.03;5031918;28;20029;-48
2023/02/02 00:04:18;;;;;;;17.95;6.82;;;;;;;7.43;54.64;100117.56;5031908;28;20026;-48
2023/02/02 00:06:47;;;;;;;13.38;5.80;;;;;;;7.24;55.31;100108.00;5031706;28;20022;-48
2023/02/02 00:09:17;;;;;;;15.68;8.68;;;;;;;7.04;56.41;100115.88;5031737;28;20436;-49
2023/02/02 00:11:44;;;;;;;16.88;7.13;;;;;;;6.85;57.31;100108.94;5031821;28;20056;-48
2023/02/02 00:14:10;;;;;;;22.15;7.60;;;;;;;6.75;57.85;100115.97;5014060;28;20029;-48
2023/02/02 00:16:58;;;;;;;21.33;7.03;;;;;;;6.53;58.67;100115.31;5031646;28;20034;-48
2023/02/02 00:19:26;;;;;;;16.58;5.82;;;;;;;6.32;58.47;100106.81;5013549;28;20115;-49
2023/02/02 00:21:53;;;;;;;15.05;5.75;;;;;;;6.37;59.17;100117.66;5031582;28;20044;-48
2023/02/02 00:24:19;;;;;;;20.45;5.95;;;;;;;6.48;58.72;100112.31;5031595;28;20518;-48
2023/02/02 00:26:51;;;;;;;18.50;5.95;;;;;;;6.46;58.76;100105.56;5031405;28;20025;-48
2023/02/02 00:29:20;;;;;;;23.08;7.40;;;;;;;6.47;58.57;100108.03;5031550;28;20025;-48
2023/02/02 00:31:45;;;;;;;15.77;6.32;;;;;;;6.47;58.94;100102.81;5031532;28;20029;-48
2023/02/02 00:34:13;;;;;;;18.23;7.32;;;;;;;6.48;58.78;100099.25;5031515;28;20029;-49
2023/02/02 00:36:38;;;;;;;17.60;6.50;;;;;;;6.45;59.20;100099.53;5031785;28;20087;-48
2023/02/02 00:39:05;;;;;;;11.80;5.63;;;;;;;6.35;59.66;100094.31;5031488;28;20021;-48
2023/02/02 00:41:30;;;;;;;18.17;8.30;;;;;;;6.25;59.97;100095.28;5031468;28;20053;-48
2023/02/02 00:46:41;;;;;;;17.90;6.47;;;;;;;5.96;60.69;100083.88;5031407;28;20035;-48
2023/02/02 00:49:07;;;;;;;15.30;6.65;;;;;;;5.94;61.01;100084.97;5017523;28;20029;-48
2023/02/02 00:51:35;;;;;;;16.58;8.10;;;;;;;5.96;61.38;100089.09;5035227;28;20036;-48
2023/02/02 00:54:01;;;;;;;24.90;10.00;;;;;;;5.97;61.28;100084.72;5035200;28;20045;-48
2023/02/02 00:56:26;;;;;;;24.10;10.10;;;;;;;5.73;61.64;100079.84;5034954;28;20076;-48
2023/02/02 00:58:52;;;;;;;21.95;8.98;;;;;;;5.51;63.29;100080.88;5017813;28;20441;-48
2023/02/02 01:01:20;;;;;;;18.13;8.40;;;;;;;5.36;64.06;100072.63;5035040;28;20442;-48
2023/02/02 01:03:47;;;;;;;17.77;7.88;;;;;;;5.36;65.20;100073.44;5035035;28;20018;-48
2023/02/02 01:06:13;;;;;;;17.63;8.23;;;;;;;5.48;63.71;100071.56;5017117;28;20143;-48
2023/02/02 01:08:39;;;;;;;18.05;8.25;;;;;;;5.58;63.54;100072.41;5017117;28;20052;-48
2023/02/02 01:11:05;;;;;;;21.13;10.70;;;;;;;5.65;63.24;100069.28;5017058;28;20102;-48
2023/02/02 01:13:32;;;;;;;20.83;9.82;;;;;;;5.53;62.16;100074.63;5034878;28;20037;-48
2023/02/02 01:15:59;;;;;;;18.42;9.52;;;;;;;5.41;63.48;100078.25;5034817;28;20021;-48
2023/02/02 01:18:27;;;;;;;19.10;8.02;;;;;;;5.35;64.10;100071.81;5035026;28;20076;-49
2023/02/02 01:21:00;;;;;;;13.75;7.93;;;;;;;5.39;64.04;100080.16;5034684;28;20067;-48
2023/02/02 01:23:26;;;;;;;19.85;13.15;;;;;;;5.54;64.22;100081.44;5034708;28;20026;-48
2023/02/02 01:25:56;;;;;;;20.55;12.20;;;;;;;5.77;62.90;100078.63;5034608;28;20391;-48
2023/02/02 01:28:23;;;;;;;20.48;9.30;;;;;;;5.89;63.96;100076.72;5034651;28;20041;-49
2023/02/02 01:30:49;;;;;;;29.40;18.83;;;;;;;5.96;62.78;100076.06;5034495;28;20391;-49
2023/02/02 01:33:16;;;;;;;29.65;10.48;;;;;;;6.13;61.57;100077.16;5034507;28;20026;-48
2023/02/02 01:35:55;;;;;;;21.17;11.85;;;;;;;6.35;61.73;100073.44;5034372;28;20032;-49
2023/02/02 01:38:22;;;;;;;19.35;8.15;;;;;;;6.28;60.35;100067.16;5034410;28;20060;-49
2023/02/02 01:40:51;;;;;;;25.67;8.18;;;;;;;6.28;60.04;100069.78;5016520;28;20021;-49
2023/02/02 01:43:24;;;;;;;19.67;7.68;;;;;;;6.24;61.10;100075.38;5016470;28;20495;-48
2023/02/02 01:45:54;;;;;;;20.13;7.80;;;;;;;6.08;61.96;100073.34;5034183;28;20071;-48
2023/02/02 01:48:33;;;;;;;19.35;7.53;;;;;;;6.23;62.12;100065.94;5034116;28;20267;-48
2023/02/02 01:51:04;;;;;;;14.95;8.60;;;;;;;6.22;63.07;100066.88;5000426;28;20049;-49
2023/02/02 01:53:30;;;;;;;21.77;8.02;;;;;;;6.09;63.83;100064.56;5034155;28;20395;-48
2023/02/02 01:55:56;;;;;;;16.52;7.68;;;;;;;5.89;63.91;100064.50;5012916;28;20129;-49
2023/02/02 01:58:29;;;;;;;19.77;7.55;;;;;;;5.53;64.14;100058.13;5012822;28;20458;-48
2023/02/02 02:00:56;;;;;;;28.80;14.60;;;;;;;5.21;65.04;100064.34;5014150;28;20112;-48
2023/02/02 02:03:26;;;;;;;18.90;9.32;;;;;;;5.19;66.41;100067.09;5014116;28;20021;-48
2023/02/02 02:06:01;;;;;;;25.80;14.48;;;;;;;5.32;65.97;100056.44;5014125;28;20484;-49
2023/02/02 02:08:30;;;;;;;21.67;6.20;;;;;;;5.65;65.44;100057.06;5014094;28;20076;-48
2023/02/02 02:10:56;;;;;;;18.85;8.27;;;;;;;5.87;64.32;100048.19;5012669;28;20049;-49
2023/02/02 02:16:17;;;;;;;15.45;6.60;;;;;;;5.94;62.24;100051.09;5014033;28;20059;-49
2023/02/02 02:16:37;;;;;;;19.10;6.40;;;;;;;6.11;62.72;100047.00;5013838;28;20042;-48
2023/02/02 02:19:33;;;;;;;19.40;6.95;;;;;;;5.90;63.38;100044.50;5012609;28;20411;-48
2023/02/02 02:28:25;;;;;;;17.30;7.63;;;;;;;5.56;64.99;100044.88;5013745;28;20057;-48
2023/02/02 02:31:03;;;;;;;16.55;6.85;;;;;;;5.36;64.30;100044.00;5012292;28;20441;-49
2023/02/02 02:33:57;;;;;;;18.13;6.50;;;;;;;5.18;65.49;100046.41;5012374;28;20061;-48
2023/02/02 02:36:55;;;;;;;21.83;7.43;;;;;;;5.04;66.35;100046.78;4996259;28;20029;-48
2023/02/02 02:39:47;;;;;;;16.23;6.47;;;;;;;5.06;66.39;100050.88;5013550;28;20026;-48
2023/02/02 02:42:21;;;;;;;17.48;7.00;;;;;;;5.00;65.70;100049.63;5013745;28;20026;-48
2023/02/02 02:44:48;;;;;;;15.02;7.03;;;;;;;5.09;64.93;100055.84;5013430;28;20065;-48
2023/02/02 02:47:15;;;;;;;26.13;7.72;;;;;;;5.17;64.65;100057.75;5013247;28;20037;-48
2023/02/02 02:49:45;;;;;;;21.08;7.50;;;;;;;5.18;65.50;100049.81;5013358;28;20105;-49
2023/02/02 02:52:12;;;;;;;19.48;7.85;;;;;;;5.10;65.51;100057.47;5012142;28;20132;-49
2023/02/02 02:54:48;;;;;;;22.25;7.38;;;;;;;4.91;65.72;100046.97;5011714;28;20050;-49
2023/02/02 02:57:37;;;;;;;18.95;7.35;;;;;;;4.93;64.47;100040.72;5013424;28;20050;-49
2023/02/02 03:00:45;;;;;;;15.25;7.60;;;;;;;5.04;65.87;100047.59;5011841;28;20069;-48
2023/02/02 03:03:32;;;;;;;20.73;6.80;;;;;;;5.29;66.22;100038.50;5013112;28;20109;-48
2023/02/02 03:06:00;;;;;;;20.90;6.70;;;;;;;5.45;65.38;100047.56;5011617;28;20022;-48
2023/02/02 03:08:33;;;;;;;23.45;7.43;;;;;;;5.36;65.80;100054.41;5011711;28;20259;-49
2023/02/02 03:11:01;;;;;;;24.58;8.73;;;;;;;5.45;64.80;100044.97;5012393;28;20100;-48
2023/02/02 03:13:28;;;;;;;17.98;6.90;;;;;;;5.31;64.62;100047.00;5011937;28;20471;-49
2023/02/02 03:15:54;;;;;;;22.98;7.40;;;;;;;5.24;64.98;100043.28;5012840;28;20018;-48
2023/02/02 03:18:23;;;;;;;18.23;6.95;;;;;;;5.17;65.84;100047.34;5011514;28;20032;-48
2023/02/02 03:20:49;;;;;;;18.40;6.90;;;;;;;5.16;65.10;100049.13;5011464;28;20022;-48
2023/02/02 03:23:14;;;;;;;17.58;7.47;;;;;;;4.97;64.41;100060.31;5011381;28;20033;-49
2023/02/02 03:25:40;;;;;;;17.25;7.78;;;;;;;4.72;65.08;100055.50;5011530;28;20018;-48
2023/02/02 03:28:06;;;;;;;21.27;7.93;;;;;;;4.42;66.02;100056.28;5012632;28;20021;-48
2023/02/02 03:30:33;;;;;;;19.25;7.10;;;;;;;4.31;67.31;100055.41;5011403;28;20036;-48
2023/02/02 03:33:00;;;;;;;18.38;7.50;;;;;;;4.28;67.24;100057.41;5011247;28;20025;-48
2023/02/02 03:35:25;;;;;;;20.80;7.70;;;;;;;4.07;67.02;100057.41;5012514;28;20026;-48
2023/02/02 03:37:52;;;;;;;19.55;7.60;;;;;;;3.95;68.37;100064.41;5012449;28;20028;-48
2023/02/02 03:40:18;;;;;;;17.35;7.30;;;;;;;3.92;68.45;100062.06;5011150;28;20034;-48
2023/02/02 03:42:43;;;;;;;17.55;8.13;;;;;;;4.03;68.92;100051.63;5012466;28;20021;-48
2023/02/02 03:45:09;;;;;;;19.50;7.90;;;;;;;4.26;69.34;100044.53;5012315;28;20511;-48
2023/02/02 03:47:35;;;;;;;20.40;7.30;;;;;;;4.45;67.78;100045.63;5012324;28;20526;-48
2023/02/02 03:50:01;;;;;;;16.33;7.00;;;;;;;4.28;67.04;100054.81;5010988;28;20029;-48
2023/02/02 03:52:26;;;;;;;16.10;7.28;;;;;;;4.19;67.37;100052.03;5012288;28;20030;-48
2023/02/02 03:54:52;;;;;;;23.65;8.20;;;;;;;4.14;68.13;100059.34;5017946;28;20072;-48
2023/02/02 03:57:18;;;;;;;17.83;6.90;;;;;;;3.93;68.33;100056.75;5014132;28;20407;-48
2023/02/02 03:59:44;;;;;;;19.58;7.25;;;;;;;3.92;69.26;100062.88;5014143;28;20025;-48
2023/02/02 04:02:09;;;;;;;21.65;8.05;;;;;;;3.92;68.69;100064.66;5014060;28;20025;-48
2023/02/02 04:04:35;;;;;;;23.15;8.20;;;;;;;3.71;69.45;100062.81;5031807;28;20026;-49
2023/02/02 04:07:01;;;;;;;18.20;7.63;;;;;;;3.75;70.77;100066.81;5031727;28;20056;-48
2023/02/02 04:09:27;;;;;;;13.45;6.78;;;;;;;4.13;68.86;100049.13;5031801;28;20037;-48
2023/02/02 04:11:53;;;;;;;17.75;7.68;;;;;;;4.37;66.33;100051.47;5031678;28;20491;-48
2023/02/02 04:14:19;;;;;;;18.67;8.13;;;;;;;4.52;67.06;100055.38;5014004;28;20095;-48
2023/02/02 04:16:44;;;;;;;20.98;7.35;;;;;;;4.69;67.69;100050.56;5031735;28;20026;-48
2023/02/02 04:19:11;;;;;;;24.77;7.68;;;;;;;4.73;66.87;100055.41;5031663;28;20075;-48
2023/02/02 04:21:38;;;;;;;17.05;6.50;;;;;;;4.63;67.01;100043.28;5031632;28;20030;-48
2023/02/02 04:24:05;;;;;;;12.13;5.57;;;;;;;4.69;64.44;100047.94;5035725;28;20025;-48
2023/02/02 04:26:31;;;;;;;21.80;6.22;;;;;;;4.45;64.13;100046.47;5035674;28;20491;-48
2023/02/02 04:28:57;;;;;;;12.52;6.43;;;;;;;4.29;65.19;100054.69;5035657;28;20034;-48
2023/02/02 04:31:26;;;;;;;14.93;5.82;;;;;;;4.25;64.94;100053.31;5017927;28;20021;-48
2023/02/02 04:33:51;;;;;;;14.07;5.32;;;;;;;4.31;65.33;100052.00;5035622;28;20030;-48
2023/02/02 04:36:17;;;;;;;14.82;5.50;;;;;;;4.32;65.05;100045.81;5035571;28;20371;-48
2023/02/02 04:38:43;;;;;;;13.90;5.85;;;;;;;4.15;64.42;100057.59;5017755;28;20235;-48
2023/02/02 04:41:13;;;;;;;17.42;7.32;;;;;;;4.09;65.25;100058.94;5035510;28;20067;-48
2023/02/02 04:43:39;;;;;;;20.33;7.18;;;;;;;3.85;65.55;100060.91;5035816;28;20407;-49
2023/02/02 04:46:04;;;;;;;15.43;7.30;;;;;;;3.54;66.93;100065.91;5017552;28;20026;-48
2023/02/02 04:48:30;;;;;;;21.38;7.38;;;;;;;3.35;69.12;100059.59;5017635;28;20474;-48
2023/02/02 04:51:05;;;;;;;19.80;6.35;;;;;;;3.37;68.85;100049.91;5017609;28;20028;-48
2023/02/02 04:53:31;;;;;;;19.23;5.93;;;;;;;3.53;68.94;100054.72;5035287;28;20080;-48
2023/02/02 04:55:57;;;;;;;16.85;7.30;;;;;;;3.56;67.42;100049.31;5034940;28;20320;-48
2023/02/02 04:58:23;;;;;;;13.93;6.60;;;;;;;3.60;67.87;100058.50;5001174;28;20024;-48
2023/02/02 05:00:49;;;;;;;17.00;7.10;;;;;;;3.56;67.48;100051.91;5017301;28;20025;-48
2023/02/02 05:03:15;;;;;;;20.23;9.43;;;;;;;3.51;66.85;100051.44;5035110;28;20479;-48
2023/02/02 05:05:40;;;;;;;16.67;9.88;;;;;;;3.42;67.46;100053.91;5035027;28;20033;-48
2023/02/02 05:08:08;;;;;;;19.45;7.57;;;;;;;3.34;67.69;100057.94;5017079;28;20095;-48
2023/02/02 05:10:34;;;;;;;22.67;9.88;;;;;;;3.35;68.33;100056.19;5034876;28;20048;-48
2023/02/02 05:12:59;;;;;;;21.27;8.40;;;;;;;3.24;68.84;100057.03;5017061;28;20052;-48
2023/02/02 05:15:25;;;;;;;23.83;7.70;;;;;;;3.19;70.11;100062.53;5034852;28;20064;-48
2023/02/02 05:17:51;;;;;;;26.27;8.57;;;;;;;3.37;70.07;100069.84;5017033;28;20036;-48
2023/02/02 05:20:17;;;;;;;14.60;6.43;;;;;;;3.37;68.56;100062.06;5034725;28;20034;-48
2023/02/02 05:22:42;;;;;;;20.40;6.85;;;;;;;3.61;68.37;100056.72;5034735;28;20022;-48
2023/02/02 05:25:08;;;;;;;17.05;6.35;;;;;;;3.88;66.96;100058.06;5034658;28;20028;-49
2023/02/02 05:27:35;;;;;;;18.48;7.10;;;;;;;3.93;67.20;100058.53;5034588;28;20442;-48
2023/02/02 05:30:00;;;;;;;23.67;7.35;;;;;;;4.02;67.78;100057.75;5034535;28;20045;-48
2023/02/02 05:32:29;;;;;;;23.27;6.85;;;;;;;4.08;67.88;100065.06;5016634;28;20103;-48
2023/02/02 05:34:55;;;;;;;16.50;6.90;;;;;;;3.99;67.34;100066.63;5034205;28;20026;-49
2023/02/02 05:37:21;;;;;;;24.17;8.43;;;;;;;4.03;67.55;100066.41;5034448;28;20033;-48
2023/02/02 05:39:46;;;;;;;24.83;13.05;;;;;;;3.88;68.03;100063.25;5034343;28;20503;-48
2023/02/02 05:42:12;;;;;;;17.90;7.55;;;;;;;3.92;67.26;100064.66;5016539;28;20163;-48
2023/02/02 05:44:37;;;;;;;19.80;5.45;;;;;;;4.03;65.30;100069.81;5016563;28;20079;-48
2023/02/02 05:47:03;;;;;;;21.60;6.72;;;;;;;3.99;65.75;100065.81;5016418;28;20025;-48
2023/02/02 05:49:29;;;;;;;22.38;7.45;;;;;;;3.90;67.08;100074.34;5016424;28;20040;-49
2023/02/02 05:51:57;;;;;;;15.90;6.32;;;;;;;3.96;66.40;100074.69;5034053;28;20018;-48
2023/02/02 05:54:23;;;;;;;30.60;8.75;;;;;;;4.06;67.12;100066.97;5034063;28;20064;-48
2023/02/02 05:56:53;;;;;;;19.27;7.20;;;;;;;4.24;64.98;100076.81;5034119;28;20036;-48
2023/02/02 05:59:19;;;;;;;18.05;6.55;;;;;;;4.08;64.31;100067.66;5034063;28;20026;-48
2023/02/02 06:01:46;;;;;;;21.00;7.55;;;;;;;3.98;65.81;100077.13;5033967;28;20028;-48
2023/02/02 06:04:11;;;;;;;28.92;19.83;;;;;;;3.91;66.32;100076.81;5016115;28;20029;-48
2023/02/02 06:06:37;;;;;;;20.95;8.18;;;;;;;4.01;65.12;100084.69;5015953;28;20021;-48
2023/02/02 06:09:04;;;;;;;21.60;6.88;;;;;;;3.96;65.63;100086.84;5033793;28;20021;-48
2023/02/02 06:11:30;;;;;;;22.63;8.98;;;;;;;4.02;65.08;100085.50;5033837;28;20025;-49
2023/02/02 06:13:56;;;;;;;20.23;6.70;;;;;;;4.17;64.93;100094.69;5015985;28;20044;-48
2023/02/02 06:16:21;;;;;;;17.83;7.47;;;;;;;4.28;64.13;100093.81;5015985;28;20033;-48
2023/02/02 06:18:47;;;;;;;12.68;5.72;;;;;;;4.11;64.55;100093.41;5015819;28;20438;-48
2023/02/02 06:21:13;;;;;;;20.67;6.28;;;;;;;4.23;64.74;100098.56;5033674;28;20025;-48
2023/02/02 06:23:44;;;;;;;21.98;6.60;;;;;;;4.33;63.85;100089.88;5033608;28;20022;-48
2023/02/02 06:26:14;;;;;;;22.17;7.97;;;;;;;4.26;63.59;100093.09;5033492;28;20025;-48
2023/02/02 06:28:42;;;;;;;20.67;7.47;;;;;;;4.27;63.63;100092.16;5016038;28;20022;-48
2023/02/02 06:31:10;;;;;;;22.92;8.57;;;;;;;4.28;63.81;100091.22;5033391;28;20030;-48
2023/02/02 06:33:36;;;;;;;19.00;7.15;;;;;;;4.39;64.65;100091.97;5033412;28;20022;-48
2023/02/02 06:36:05;;;;;;;28.33;7.03;;;;;;;4.47;63.89;100091.34;5033165;28;20155;-48
2023/02/02 06:38:31;;;;;;;23.42;7.63;;;;;;;4.52;64.50;100097.00;5015772;28;20052;-48
2023/02/02 06:41:02;;;;;;;21.13;6.50;;;;;;;4.62;64.16;100098.84;5033285;28;20061;-48
2023/02/02 06:43:30;;;;;;;26.00;6.78;;;;;;;4.77;64.25;100092.38;5033247;28;20021;-48
2023/02/02 06:45:58;;;;;;;24.67;8.68;;;;;;;4.96;63.65;100094.25;4998194;28;20114;-49
2023/02/02 06:48:25;;;;;;;21.35;7.22;;;;;;;4.97;63.10;100093.28;5033183;28;20114;-48
2023/02/02 06:50:55;;;;;;;16.60;7.72;;;;;;;4.87;62.68;100092.41;5032785;28;20549;-48
2023/02/02 06:53:22;;;;;;;29.05;9.68;;;;;;;4.73;62.57;100094.41;5032977;28;20477;-48
2023/02/02 06:56:03;;;;;;;17.05;7.05;;;;;;;4.45;63.12;100101.06;5014927;28;20069;-48
2023/02/02 06:58:30;;;;;;;22.70;6.63;;;;;;;4.35;63.20;100106.19;5032068;28;20036;-48
2023/02/02 07:01:10;;;;;;;28.13;9.10;;;;;;;4.36;64.41;100115.59;5032737;28;20025;-48
2023/02/02 07:03:36;;;;;;;29.15;12.05;;;;;;;4.35;65.33;100113.16;5033179;28;20064;-48
2023/02/02 07:06:18;;;;;;;25.63;10.68;;;;;;;4.37;65.89;100116.47;4998232;28;20487;-48
2023/02/02 07:08:46;;;;;;;26.08;7.85;;;;;;;4.38;65.32;100118.09;5015078;28;20054;-48
2023/02/02 07:11:12;;;;;;;24.48;8.35;;;;;;;4.16;65.79;100124.19;5014819;28;20029;-48
2023/02/02 07:13:40;;;;;;;15.63;6.18;;;;;;;4.26;66.08;100119.09;5032299;28;20037;-48
2023/02/02 07:16:08;;;;;;;26.73;8.93;;;;;;;4.60;65.38;100127.56;5013860;28;20045;-48
2023/02/02 07:18:38;;;;;;;23.00;8.10;;;;;;;4.54;65.82;100126.28;5032539;28;20021;-48
2023/02/02 07:21:24;;;;;;;33.75;15.30;;;;;;;4.56;65.66;100126.97;5030869;28;20376;-48
2023/02/02 07:23:50;;;;;;;36.42;19.85;;;;;;;4.93;66.75;100129.16;5032437;28;20108;-48
2023/02/02 07:26:19;;;;;;;24.17;9.38;;;;;;;5.41;64.83;100127.72;5032556;28;20386;-48
2023/02/02 07:28:48;;;;;;;25.10;9.68;;;;;;;5.91;64.20;100132.94;5014237;28;20454;-48
2023/02/02 07:31:22;;;;;;;26.55;10.23;;;;;;;6.12;63.31;100132.06;5014551;28;20022;-48
2023/02/02 07:33:49;;;;;;;29.45;9.27;;;;;;;6.27;61.65;100135.88;5014334;28;20036;-48
2023/02/02 07:36:17;;;;;;;24.42;12.07;;;;;;;6.24;58.78;100136.19;5032421;28;20399;-49
2023/02/02 07:38:45;;;;;;;58.08;40.05;;;;;;;5.88;59.72;100140.22;5014443;28;20029;-48
2023/02/02 07:41:12;;;;;;;25.48;10.05;;;;;;;5.67;60.20;100140.28;5014348;28;20127;-48
2023/02/02 07:43:41;;;;;;;23.95;9.38;;;;;;;5.64;61.18;100136.16;5032079;28;20018;-48
2023/02/02 07:46:11;;;;;;;21.50;7.32;;;;;;;5.61;60.79;100144.22;4998235;28;20186;-48
2023/02/02 07:48:38;;;;;;;49.75;11.25;;;;;;;5.60;61.27;100147.81;5015138;28;20041;-48
2023/02/02 07:51:07;;;;;;;32.30;7.97;;;;;;;5.59;61.55;100152.19;5030667;28;20581;-48
2023/02/02 07:53:34;;;;;;;35.42;9.23;;;;;;;5.73;62.53;100153.59;5014241;28;20029;-48
2023/02/02 07:56:16;;;;;;;39.08;9.27;;;;;;;5.93;61.98;100151.03;5030760;28;20495;-48
2023/02/02 07:58:42;;;;;;;31.77;10.20;;;;;;;6.27;61.81;100148.94;5014167;28;20033;-49
2023/02/02 08:01:11;;;;;;;25.40;8.68;;;;;;;6.59;61.26;100143.44;5013931;28;20029;-48
2023/02/02 08:03:37;;;;;;;34.08;7.68;;;;;;;6.95;60.87;100156.72;5014432;28;20115;-49
2023/02/02 08:06:15;;;;;;;19.48;7.55;;;;;;;7.30;60.50;100157.84;5031725;28;20103;-49
2023/02/02 08:08:41;;;;;;;21.10;7.32;;;;;;;7.61;60.04;100155.00;5014096;28;20509;-48
2023/02/02 08:11:09;;;;;;;37.30;9.10;;;;;;;7.84;58.86;100160.66;5031678;28;20038;-49
2023/02/02 08:13:37;;;;;;;31.55;10.25;;;;;;;7.98;58.20;100159.34;5031949;28;20033;-49
2023/02/02 08:16:19;;;;;;;35.47;8.82;;;;;;;8.05;58.47;100163.00;5030723;28;20526;-49
2023/02/02 08:18:44;;;;;;;34.67;8.77;;;;;;;8.23;58.20;100156.97;5014264;28;20029;-49
2023/02/02 08:21:11;;;;;;;28.33;9.55;;;;;;;8.42;56.87;100154.25;5013944;28;20036;-49
2023/02/02 08:23:39;;;;;;;25.05;9.30;;;;;;;8.61;56.08;100150.63;5013558;28;20072;-48
2023/02/02 08:26:07;;;;;;;27.27;11.68;;;;;;;8.73;56.65;100151.22;5031894;28;20026;-49
2023/02/02 08:28:34;;;;;;;22.65;10.45;;;;;;;9.08;56.71;100152.94;5014102;28;20030;-49
2023/02/02 08:31:23;;;;;;;20.20;8.60;;;;;;;9.52;55.55;100141.56;5013874;28;20029;-48
2023/02/02 08:33:50;;;;;;;33.05;10.10;;;;;;;10.04;55.28;100143.19;5030824;28;20042;-48
2023/02/02 08:36:22;;;;;;;181.93;163.90;;;;;;;10.39;53.08;100142.13;5031570;28;20407;-48
2023/02/02 08:38:48;;;;;;;46.53;22.85;;;;;;;11.35;52.83;100138.72;5013756;28;20083;-49
2023/02/02 08:41:16;;;;;;;28.65;10.85;;;;;;;12.53;50.38;100136.94;5031499;28;20461;-49
2023/02/02 08:43:43;;;;;;;32.25;9.85;;;;;;;13.16;48.99;100137.50;5031510;28;20022;-49
2023/02/02 08:46:10;;;;;;;32.15;10.18;;;;;;;13.89;47.48;100127.09;5031387;28;20021;-49
2023/02/02 08:48:37;;;;;;;29.63;10.38;;;;;;;14.77;45.03;100131.19;5031436;28;20387;-48
2023/02/02 08:51:03;;;;;;;26.20;9.05;;;;;;;15.84;42.99;100125.69;5013610;28;20088;-49
2023/02/02 08:53:30;;;;;;;27.35;8.98;;;;;;;16.75;40.01;100133.94;5031381;28;20017;-49
2023/02/02 08:56:03;;;;;;;31.45;9.07;;;;;;;17.34;38.52;100128.75;5031105;28;20096;-46
2023/02/02 08:58:30;;;;;;;25.42;8.60;;;;;;;17.80;37.87;100137.56;5031418;28;20029;-46
2023/02/02 09:01:04;;;;;;;26.02;9.50;;;;;;;17.78;37.06;100143.88;5013562;28;20140;-46
2023/02/02 09:03:30;;;;;;;34.42;10.20;;;;;;;17.07;36.41;100147.38;5031583;28;20100;-46
2023/02/02 09:05:56;;;;;;;36.22;11.20;;;;;;;16.34;36.80;100152.69;5013481;28;20426;-46
2023/02/02 09:08:21;;;;;;;34.05;10.85;;;;;;;15.86;37.81;100152.78;5014472;28;20030;-46
2023/02/02 09:10:47;;;;;;;27.50;10.48;;;;;;;15.89;38.24;100160.31;5034936;28;20033;-46
2023/02/02 09:13:13;;;;;;;30.65;10.45;;;;;;;15.26;38.93;100157.75;5034925;28;20040;-46
2023/02/02 09:15:38;;;;;;;36.47;10.73;;;;;;;15.41;40.13;100154.97;5034864;28;20399;-46
2023/02/02 09:18:04;;;;;;;31.65;9.05;;;;;;;16.25;37.85;100159.19;5034806;28;20411;-46
2023/02/02 09:20:30;;;;;;;28.45;7.82;;;;;;;17.34;37.63;100163.25;5034758;28;20109;-46
2023/02/02 09:22:56;;;;;;;28.70;7.78;;;;;;;18.41;36.00;100147.66;5034775;28;20018;-47
2023/02/02 09:25:23;;;;;;;31.95;8.30;;;;;;;19.16;35.39;100142.31;5016864;28;20037;-46
2023/02/02 09:27:50;;;;;;;30.63;8.35;;;;;;;19.66;34.01;100144.00;5034601;28;20025;-46
2023/02/02 09:30:16;;;;;;;30.55;7.28;;;;;;;20.09;33.64;100143.03;5034509;28;20025;-46
2023/02/02 09:32:42;;;;;;;22.05;6.32;;;;;;;20.50;32.48;100148.59;5034535;28;20530;-47
2023/02/02 09:35:07;;;;;;;22.70;6.88;;;;;;;20.57;32.58;100156.50;5034538;28;20029;-47
2023/02/02 09:37:34;;;;;;;18.50;6.30;;;;;;;20.99;31.22;100153.75;5000486;28;20030;-47
2023/02/02 09:39:59;;;;;;;24.20;6.97;;;;;;;21.51;31.35;100148.47;5016883;28;20028;-47
2023/02/02 09:42:28;;;;;;;40.65;7.20;;;;;;;21.97;30.43;100154.72;5016659;28;20021;-47
2023/02/02 09:45:08;;;;;;;34.97;6.18;;;;;;;22.32;30.44;100146.56;5034654;28;20372;-47
2023/02/02 09:47:52;;;;;;;23.75;6.97;;;;;;;22.70;29.35;100149.56;5034464;28;20021;-47
2023/02/02 09:50:38;;;;;;;27.70;7.97;;;;;;;22.86;29.65;100142.56;5034304;28;20044;-47
2023/02/02 09:53:11;;;;;;;25.92;6.63;;;;;;;23.25;28.20;100153.31;5034247;28;20091;-47
2023/02/02 09:55:43;;;;;;;20.50;8.52;;;;;;;23.46;28.33;100146.31;5033953;28;20451;-47
2023/02/02 09:58:26;;;;;;;25.60;6.53;;;;;;;23.80;28.32;100149.69;5016356;28;20025;-47
2023/02/02 10:01:12;;;;;;;22.65;7.07;;;;;;;24.37;26.81;100152.91;5034055;28;20491;-47
2023/02/02 10:04:00;;;;;;;28.02;7.35;;;;;;;24.37;27.25;100153.75;5016290;28;20375;-47
2023/02/02 10:06:40;;;;;;;24.80;6.85;;;;;;;24.05;26.39;100156.41;5033960;28;20068;-47
2023/02/02 10:09:29;;;;;;;27.52;10.75;;;;;;;23.96;27.00;100149.88;4999845;28;20123;-47
2023/02/02 10:12:16;;;;;;;13.95;6.13;;;;;;;23.94;26.72;100152.78;5016198;28;20030;-47
2023/02/02 10:14:51;;;;;;;19.10;5.63;;;;;;;24.23;26.59;100155.25;5016141;28;20026;-47
2023/02/02 10:17:43;;;;;;;20.48;6.93;;;;;;;24.49;26.13;100157.06;5033738;28;20031;-47
2023/02/02 10:20:49;;;;;;;19.33;6.53;;;;;;;24.52;26.26;100161.94;5033684;28;20038;-47
2023/02/02 10:23:27;;;;;;;17.88;8.38;;;;;;;24.87;25.95;100167.81;5033627;28;20079;-47
2023/02/02 10:26:17;;;;;;;18.30;5.57;;;;;;;25.20;24.84;100169.38;5033669;28;20026;-47
2023/02/02 10:28:58;;;;;;;23.65;6.10;;;;;;;24.81;24.45;100167.00;5015149;28;20507;-47
2023/02/02 10:31:38;;;;;;;32.38;7.80;;;;;;;24.33;25.37;100172.22;5015700;28;20029;-47
2023/02/02 10:34:36;;;;;;;20.63;6.82;;;;;;;24.43;25.74;100168.81;5033472;28;20029;-47
2023/02/02 10:37:20;;;;;;;14.85;5.60;;;;;;;24.44;25.65;100172.31;5022639;28;20049;-47
2023/02/02 10:40:24;;;;;;;23.15;6.63;;;;;;;24.58;25.90;100164.69;5017596;28;20387;-47
2023/02/02 10:45:40;;;;;;;18.55;5.15;;;;;;;24.91;25.21;100172.44;4953041;29;20485;-47
2023/02/02 10:48:21;;;;;;;26.80;6.53;;;;;;;24.81;25.20;100161.63;4921301;29;20489;-47
2023/02/02 10:50:54;;;;;;;14.75;5.10;;;;;;;25.12;25.06;100153.75;4952951;29;20063;-47
2023/02/02 10:53:24;;;;;;;13.88;4.07;;;;;;;25.33;24.66;100145.81;4952730;29;20031;-47
2023/02/02 10:55:54;;;;;;;15.52;5.00;;;;;;;25.18;24.24;100144.66;4952498;29;20518;-47
2023/02/02 10:58:31;;;;;;;16.13;4.60;;;;;;;24.63;24.28;100137.84;4952674;28;20050;-46
2023/02/02 11:01:00;;;;;;;13.35;4.25;;;;;;;23.82;25.10;100139.53;4952733;29;20074;-47
2023/02/02 11:03:31;;;;;;;17.13;4.10;;;;;;;23.11;25.71;100139.47;4952598;29;20044;-46
2023/02/02 11:08:55;;;;;;;20.13;3.85;;;;;;;21.94;27.84;100139.16;4952849;29;20046;-46
2023/02/02 11:11:45;;;;;;;15.20;4.38;;;;;;;21.66;28.35;100145.31;4952413;29;20584;-46
2023/02/02 11:14:19;;;;;;;12.10;3.75;;;;;;;21.95;28.23;100143.44;4952421;29;20034;-47
2023/02/02 11:16:58;;;;;;;11.67;3.40;;;;;;;22.48;27.31;100147.63;4992662;28;20052;-47
2023/02/02 11:19:28;;;;;;;17.42;4.28;;;;;;;22.73;27.11;100138.34;5032603;28;20407;-47
2023/02/02 11:21:57;;;;;;;15.07;3.85;;;;;;;22.96;27.09;100139.22;5032573;28;20035;-47
2023/02/02 11:24:47;;;;;;;12.57;4.68;;;;;;;22.81;26.53;100148.66;5014702;28;20029;-46
2023/02/02 11:27:14;;;;;;;17.48;3.53;;;;;;;22.43;26.59;100154.75;5032388;28;20021;-46
2023/02/02 11:29:39;;;;;;;14.13;5.00;;;;;;;21.54;27.86;100161.38;5032214;28;20494;-46
2023/02/02 11:32:28;;;;;;;15.45;3.72;;;;;;;21.76;28.37;100163.41;5031856;28;20033;-46
2023/02/02 11:35:03;;;;;;;11.07;3.58;;;;;;;22.13;27.01;100159.31;5032525;28;20108;-46
2023/02/02 11:37:50;;;;;;;13.35;3.28;;;;;;;22.34;27.04;100162.38;5032290;28;20028;-46
2023/02/02 11:40:39;;;;;;;11.70;3.80;;;;;;;22.55;27.90;100155.47;5032245;28;20033;-46
2023/02/02 11:43:17;;;;;;;19.13;3.72;;;;;;;22.71;26.08;100141.28;5032228;28;20513;-46
2023/02/02 11:45:44;;;;;;;11.02;3.70;;;;;;;22.23;26.71;100149.81;5014405;28;20069;-46
2023/02/02 11:48:19;;;;;;;15.15;3.85;;;;;;;22.07;27.14;100146.91;5031924;28;20104;-46
2023/02/02 11:50:48;;;;;;;15.73;3.45;;;;;;;21.84;27.59;100141.66;5014425;28;20037;-46
2023/02/02 11:53:29;;;;;;;12.48;3.53;;;;;;;21.82;27.89;100154.44;5032001;28;20033;-46